createdAt,value
2023-02-27T00:00:17.697Z,6.22
2023-02-27T00:00:49.510Z,6.35
2023-02-27T00:01:21.154Z,5.65
2023-02-27T00:01:52.764Z,5.45
2023-02-27T00:02:25.458Z,5.78
2023-02-27T00:02:58.400Z,5.72
2023-02-27T00:03:30.606Z,6.07
2023-02-27T00:04:02.350Z,5.65
2023-02-27T00:04:34.023Z,6.47
2023-02-27T00:05:07.348Z,6.10
2023-02-27T00:05:41.693Z,5.63
2023-02-27T00:06:13.351Z,6.15
2023-02-27T00:06:44.955Z,5.82
2023-02-27T00:07:16.692Z,5.72
2023-02-27T00:07:48.921Z,6.22
2023-02-27T00:08:20.572Z,5.88
2023-02-27T00:08:52.256Z,6.03
2023-02-27T00:09:24.057Z,5.50
2023-02-27T00:09:55.782Z,5.90
2023-02-27T00:10:27.369Z,5.90
2023-02-27T00:10:59.016Z,6.00
2023-02-27T00:11:30.692Z,6.10
2023-02-27T00:12:02.619Z,5.88
2023-02-27T00:12:38.460Z,5.80
2023-02-27T00:13:10.361Z,5.80
2023-02-27T00:13:42.038Z,5.78
2023-02-27T00:14:13.640Z,6.22
2023-02-27T00:14:45.249Z,6.03
2023-02-27T00:15:19.345Z,7.00
2023-02-27T00:15:51.856Z,5.97
2023-02-27T00:16:23.574Z,6.00
2023-02-27T00:16:55.257Z,6.15
2023-02-27T00:17:29.760Z,5.80
2023-02-27T00:18:01.605Z,5.45
2023-02-27T00:18:33.275Z,6.60
2023-02-27T00:19:04.972Z,5.97
2023-02-27T00:19:36.594Z,5.97
2023-02-27T00:20:11.355Z,5.97
2023-02-27T00:20:43.107Z,6.13
2023-02-27T00:21:14.692Z,5.55
2023-02-27T00:21:46.463Z,5.78
2023-02-27T00:22:18.057Z,6.00
2023-02-27T00:22:49.763Z,5.95
2023-02-27T00:23:21.467Z,6.10
2023-02-27T00:23:53.429Z,5.80
2023-02-27T00:24:25.035Z,5.68
2023-02-27T00:24:56.635Z,6.25
2023-02-27T00:25:28.258Z,5.72
2023-02-27T00:26:01.123Z,5.60
2023-02-27T00:26:32.777Z,5.57
2023-02-27T00:27:04.374Z,6.07
2023-02-27T00:27:37.129Z,5.82
2023-02-27T00:28:08.728Z,6.32
2023-02-27T00:28:40.681Z,6.30
2023-02-27T00:29:12.286Z,5.60
2023-02-27T00:29:43.992Z,6.05
2023-02-27T00:30:16.071Z,5.70
2023-02-27T00:30:47.774Z,5.70
2023-02-27T00:31:19.455Z,5.78
2023-02-27T00:31:51.317Z,5.78
2023-02-27T00:32:23.068Z,5.85
2023-02-27T00:32:55.497Z,5.93
2023-02-27T00:33:27.176Z,5.82
2023-02-27T00:33:59.091Z,5.88
2023-02-27T00:34:30.667Z,5.47
2023-02-27T00:35:07.541Z,5.80
2023-02-27T00:35:39.103Z,6.22
2023-02-27T00:36:10.734Z,5.95
2023-02-27T00:36:42.789Z,6.32
2023-02-27T00:37:14.520Z,6.45
2023-02-27T00:37:46.446Z,6.03
2023-02-27T00:38:18.024Z,6.70
2023-02-27T00:38:49.611Z,7.25
2023-02-27T00:39:21.264Z,6.80
2023-02-27T00:39:52.846Z,6.93
2023-02-27T00:40:25.497Z,7.13
2023-02-27T00:40:57.271Z,6.80
2023-02-27T00:41:29.097Z,6.72
2023-02-27T00:42:00.941Z,7.35
2023-02-27T00:42:32.913Z,6.82
2023-02-27T00:43:04.789Z,6.70
2023-02-27T00:43:36.389Z,6.90
2023-02-27T00:44:08.022Z,7.35
2023-02-27T00:44:40.889Z,7.25
2023-02-27T00:45:12.541Z,6.57
2023-02-27T00:45:44.277Z,7.53
2023-02-27T00:46:16.004Z,7.20
2023-02-27T00:46:47.754Z,7.47
2023-02-27T00:47:19.411Z,7.30
2023-02-27T00:47:50.967Z,7.10
2023-02-27T00:48:22.534Z,7.40
2023-02-27T00:48:54.210Z,6.95
2023-02-27T00:49:26.337Z,6.97
2023-02-27T00:49:57.988Z,7.22
2023-02-27T00:50:29.739Z,7.28
2023-02-27T00:51:01.470Z,7.18
2023-02-27T00:51:33.236Z,7.07
2023-02-27T00:52:05.241Z,6.78
2023-02-27T00:52:36.927Z,6.40
2023-02-27T00:53:08.513Z,6.63
2023-02-27T00:53:40.129Z,6.50
2023-02-27T00:54:11.867Z,7.18
2023-02-27T00:54:43.502Z,7.32
2023-02-27T00:55:15.166Z,6.68
2023-02-27T00:55:46.746Z,6.95
2023-02-27T00:56:18.472Z,6.70
2023-02-27T00:56:50.117Z,7.53
2023-02-27T00:57:23.069Z,7.03
2023-02-27T00:57:54.691Z,7.60
2023-02-27T00:58:26.333Z,7.00
2023-02-27T00:58:58.110Z,7.57
2023-02-27T00:59:29.694Z,6.65
2023-02-27T01:00:01.333Z,6.85
2023-02-27T01:00:33.001Z,6.90
2023-02-27T01:01:04.880Z,6.70
2023-02-27T01:01:36.629Z,6.15
2023-02-27T01:02:08.355Z,6.53
2023-02-27T01:02:40.097Z,6.72
2023-02-27T01:03:12.017Z,6.38
2023-02-27T01:03:43.667Z,6.55
2023-02-27T01:04:15.540Z,6.60
2023-02-27T01:04:47.340Z,6.28
2023-02-27T01:05:19.255Z,6.60
2023-02-27T01:05:51.732Z,6.38
2023-02-27T01:06:23.362Z,6.65
2023-02-27T01:06:55.109Z,6.53
2023-02-27T01:07:26.844Z,6.72
2023-02-27T01:07:58.873Z,6.50
2023-02-27T01:08:30.691Z,6.78
2023-02-27T01:09:03.128Z,5.93
2023-02-27T01:09:35.051Z,6.47
2023-02-27T01:10:08.565Z,6.13
2023-02-27T01:10:40.186Z,6.20
2023-02-27T01:11:11.830Z,6.10
2023-02-27T01:11:43.438Z,6.50
2023-02-27T01:12:15.066Z,6.72
2023-02-27T01:12:46.691Z,6.38
2023-02-27T01:13:18.274Z,6.20
2023-02-27T01:13:49.848Z,6.07
2023-02-27T01:14:21.456Z,6.65
2023-02-27T01:14:53.130Z,6.43
2023-02-27T01:15:24.794Z,6.15
2023-02-27T01:15:56.420Z,6.35
2023-02-27T01:16:28.408Z,6.18
2023-02-27T01:17:00.042Z,6.40
2023-02-27T01:17:33.518Z,6.60
2023-02-27T01:18:05.116Z,6.82
2023-02-27T01:18:36.700Z,6.20
2023-02-27T01:19:08.515Z,6.57
2023-02-27T01:19:40.161Z,6.20
2023-02-27T01:20:13.085Z,6.50
2023-02-27T01:20:44.687Z,6.35
2023-02-27T01:21:16.825Z,6.70
2023-02-27T01:21:48.518Z,6.40
2023-02-27T01:22:20.196Z,6.40
2023-02-27T01:22:51.812Z,6.38
2023-02-27T01:23:23.672Z,6.43
2023-02-27T01:23:55.261Z,6.40
2023-02-27T01:24:26.999Z,6.28
2023-02-27T01:24:58.689Z,5.95
2023-02-27T01:25:30.460Z,6.63
2023-02-27T01:26:02.039Z,6.50
2023-02-27T01:26:33.655Z,6.47
2023-02-27T01:27:05.465Z,6.30
2023-02-27T01:27:37.148Z,6.57
2023-02-27T01:28:08.890Z,6.75
2023-02-27T01:28:40.484Z,6.72
2023-02-27T01:29:12.113Z,6.90
2023-02-27T01:29:43.821Z,6.90
2023-02-27T01:30:16.863Z,6.07
2023-02-27T01:30:48.901Z,6.88
2023-02-27T01:31:20.787Z,6.38
2023-02-27T01:31:52.729Z,6.30
2023-02-27T01:32:24.666Z,6.47
2023-02-27T01:32:56.305Z,6.45
2023-02-27T01:33:28.100Z,6.63
2023-02-27T01:33:59.678Z,6.93
2023-02-27T01:34:33.953Z,6.05
2023-02-27T01:35:06.474Z,6.45
2023-02-27T01:35:38.098Z,7.07
2023-02-27T01:36:10.036Z,7.15
2023-02-27T01:36:42.042Z,6.97
2023-02-27T01:37:13.751Z,6.85
2023-02-27T01:37:45.386Z,6.60
2023-02-27T01:38:17.098Z,6.50
2023-02-27T01:38:48.727Z,6.90
2023-02-27T01:39:20.668Z,5.97
2023-02-27T01:39:52.259Z,6.95
2023-02-27T01:40:23.969Z,6.13
2023-02-27T01:40:57.357Z,6.68
2023-02-27T01:41:29.894Z,6.38
2023-02-27T01:42:02.021Z,6.53
2023-02-27T01:42:34.012Z,6.80
2023-02-27T01:43:06.666Z,6.38
2023-02-27T01:43:55.916Z,6.57
2023-02-27T01:44:29.183Z,6.90
2023-02-27T01:45:12.990Z,6.78
2023-02-27T01:45:48.236Z,6.07
2023-02-27T01:46:19.848Z,6.20
2023-02-27T01:46:51.412Z,6.85
2023-02-27T01:47:23.041Z,6.97
2023-02-27T01:48:03.955Z,6.53
2023-02-27T01:48:39.036Z,6.22
2023-02-27T01:49:24.213Z,6.38
2023-02-27T01:49:55.944Z,6.30
2023-02-27T01:50:27.908Z,6.00
2023-02-27T01:51:04.061Z,6.35
2023-02-27T01:51:45.202Z,6.18
2023-02-27T01:52:16.858Z,6.32
2023-02-27T01:52:54.481Z,6.43
2023-02-27T01:53:28.807Z,6.78
2023-02-27T01:54:00.885Z,6.10
2023-02-27T01:54:37.342Z,6.70
2023-02-27T01:55:13.185Z,6.70
2023-02-27T01:55:46.691Z,6.45
2023-02-27T01:56:21.516Z,6.93
2023-02-27T01:56:53.415Z,6.45
2023-02-27T01:57:26.799Z,6.68
2023-02-27T01:57:58.548Z,5.95
2023-02-27T01:58:30.409Z,6.30
2023-02-27T01:59:04.915Z,6.35
2023-02-27T01:59:39.053Z,6.70
2023-02-27T02:00:11.242Z,6.70
2023-02-27T02:00:43.211Z,6.82
2023-02-27T02:01:16.239Z,6.00
2023-02-27T02:01:48.459Z,6.55
2023-02-27T02:02:26.703Z,6.75
2023-02-27T02:03:26.676Z,6.20
2023-02-27T02:04:05.934Z,6.20
2023-02-27T02:04:40.011Z,6.25
2023-02-27T02:05:13.546Z,6.63
2023-02-27T02:05:47.120Z,6.43
2023-02-27T02:06:19.261Z,6.40
2023-02-27T02:06:57.096Z,6.70
2023-02-27T02:07:29.647Z,7.15
2023-02-27T02:08:01.588Z,6.57
2023-02-27T02:08:41.512Z,6.85
2023-02-27T02:09:16.115Z,6.72
2023-02-27T02:09:51.384Z,6.72
2023-02-27T02:10:23.187Z,7.07
2023-02-27T02:10:57.866Z,6.47
2023-02-27T02:11:29.883Z,6.85
2023-02-27T02:12:01.933Z,6.93
2023-02-27T02:12:36.828Z,6.97
2023-02-27T02:13:09.595Z,7.00
2023-02-27T02:13:42.438Z,7.20
2023-02-27T02:14:14.340Z,6.63
2023-02-27T02:14:45.991Z,6.80
2023-02-27T02:15:17.974Z,7.47
2023-02-27T02:16:10.590Z,7.15
2023-02-27T02:17:01.304Z,6.43
2023-02-27T02:17:45.534Z,6.32
2023-02-27T02:18:39.809Z,6.93
2023-02-27T02:19:43.335Z,6.60
2023-02-27T02:20:33.673Z,6.60
2023-02-27T02:21:34.188Z,6.10
2023-02-27T02:22:27.445Z,6.30
2023-02-27T02:23:02.069Z,6.63
2023-02-27T02:23:56.679Z,6.63
2023-02-27T02:24:31.201Z,5.97
2023-02-27T02:25:40.084Z,6.72
2023-02-27T02:26:14.706Z,6.88
2023-02-27T02:26:57.589Z,6.45
2023-02-27T02:27:38.034Z,6.38
2023-02-27T02:28:34.093Z,6.90
2023-02-27T02:29:17.487Z,6.60
2023-02-27T02:30:26.198Z,6.63
2023-02-27T02:31:27.420Z,5.95
2023-02-27T02:32:43.013Z,6.75
2023-02-27T02:33:36.024Z,6.82
2023-02-27T02:34:29.281Z,6.53
2023-02-27T02:35:22.306Z,6.38
2023-02-27T02:36:11.965Z,6.55
2023-02-27T02:37:02.147Z,6.30
2023-02-27T02:37:59.338Z,6.72
2023-02-27T02:38:52.526Z,6.05
2023-02-27T02:39:54.186Z,6.40
2023-02-27T02:41:02.371Z,6.45
2023-02-27T02:41:39.742Z,5.72
2023-02-27T02:42:24.600Z,6.40
2023-02-27T02:43:02.437Z,6.40
2023-02-27T02:43:43.092Z,6.65
2023-02-27T02:44:42.626Z,6.68
2023-02-27T02:45:33.464Z,6.43
2023-02-27T02:46:15.118Z,6.70
2023-02-27T02:47:05.059Z,6.78
2023-02-27T02:47:42.424Z,6.32
2023-02-27T02:48:27.969Z,6.75
2023-02-27T02:49:21.512Z,6.03
2023-02-27T02:50:34.836Z,6.22
2023-02-27T02:51:11.564Z,6.30
2023-02-27T02:51:58.734Z,6.47
2023-02-27T02:52:58.177Z,6.68
2023-02-27T02:53:47.060Z,6.50
2023-02-27T02:54:31.939Z,6.22
2023-02-27T02:55:17.087Z,6.70
2023-02-27T02:56:03.729Z,6.53
2023-02-27T02:56:44.106Z,6.60
2023-02-27T02:57:23.997Z,6.35
2023-02-27T02:58:04.001Z,6.70
2023-02-27T02:58:59.784Z,6.70
2023-02-27T02:59:44.876Z,6.53
2023-02-27T03:00:21.126Z,6.45
2023-02-27T03:01:03.832Z,6.55
2023-02-27T03:01:55.716Z,6.47
2023-02-27T03:02:35.820Z,5.93
2023-02-27T03:03:10.383Z,6.75
2023-02-27T03:03:57.343Z,6.60
2023-02-27T03:04:38.533Z,6.57
2023-02-27T03:05:17.721Z,6.78
2023-02-27T03:05:59.403Z,7.18
2023-02-27T03:06:34.388Z,6.07
2023-02-27T03:07:18.368Z,6.80
2023-02-27T03:07:57.094Z,6.50
2023-02-27T03:08:37.395Z,6.80
2023-02-27T03:09:16.836Z,6.68
2023-02-27T03:09:54.526Z,6.10
2023-02-27T03:10:42.562Z,7.40
2023-02-27T03:11:14.802Z,6.45
2023-02-27T03:11:51.215Z,6.85
2023-02-27T03:12:25.019Z,6.75
2023-02-27T03:13:02.122Z,6.97
2023-02-27T03:13:41.990Z,7.35
2023-02-27T03:14:19.357Z,6.60
2023-02-27T03:14:57.681Z,6.97
2023-02-27T03:15:36.814Z,6.95
2023-02-27T03:16:31.085Z,7.45
2023-02-27T03:17:09.845Z,6.55
2023-02-27T03:17:49.271Z,7.18
2023-02-27T03:18:25.412Z,6.60
2023-02-27T03:19:05.892Z,6.88
2023-02-27T03:19:52.247Z,7.03
2023-02-27T03:20:35.325Z,6.45
2023-02-27T03:21:13.947Z,6.50
2023-02-27T03:22:07.820Z,7.07
2023-02-27T03:22:43.679Z,6.50
2023-02-27T03:23:26.074Z,6.72
2023-02-27T03:24:02.633Z,6.00
2023-02-27T03:24:47.240Z,6.75
2023-02-27T03:25:21.300Z,7.22
2023-02-27T03:25:53.987Z,7.38
2023-02-27T03:26:33.355Z,6.65
2023-02-27T03:27:07.145Z,6.93
2023-02-27T03:27:43.807Z,7.07
2023-02-27T03:28:20.319Z,6.53
2023-02-27T03:29:20.126Z,6.72
2023-02-27T03:30:07.762Z,6.40
2023-02-27T03:30:55.783Z,6.90
2023-02-27T03:31:39.455Z,6.57
2023-02-27T03:32:21.867Z,7.00
2023-02-27T03:32:57.957Z,6.32
2023-02-27T03:33:35.396Z,6.95
2023-02-27T03:34:22.075Z,6.85
2023-02-27T03:34:53.813Z,6.47
2023-02-27T03:35:34.975Z,6.93
2023-02-27T03:36:17.428Z,6.75
2023-02-27T03:37:05.429Z,6.93
2023-02-27T03:38:01.417Z,6.43
2023-02-27T03:38:49.184Z,6.30
2023-02-27T03:39:23.675Z,6.80
2023-02-27T03:40:03.740Z,6.82
2023-02-27T03:40:44.348Z,6.25
2023-02-27T03:41:54.277Z,7.38
2023-02-27T03:42:53.620Z,6.47
2023-02-27T03:43:38.710Z,6.40
2023-02-27T03:44:22.136Z,6.80
2023-02-27T03:45:05.833Z,6.57
2023-02-27T03:45:45.456Z,6.38
2023-02-27T03:46:24.891Z,7.00
2023-02-27T03:46:56.796Z,7.22
2023-02-27T03:47:29.211Z,6.47
2023-02-27T03:48:02.250Z,7.43
2023-02-27T03:48:34.673Z,7.00
2023-02-27T03:49:07.024Z,7.22
2023-02-27T03:49:38.831Z,6.72
2023-02-27T03:50:11.657Z,7.35
2023-02-27T03:50:43.331Z,6.80
2023-02-27T03:51:19.482Z,6.60
2023-02-27T03:51:51.187Z,7.45
2023-02-27T03:52:25.054Z,7.20
2023-02-27T03:52:57.572Z,7.13
2023-02-27T03:53:46.293Z,6.75
2023-02-27T03:54:27.374Z,7.22
2023-02-27T03:55:04.689Z,6.63
2023-02-27T03:55:40.226Z,7.20
2023-02-27T03:56:13.704Z,7.40
2023-02-27T03:56:55.965Z,6.50
2023-02-27T03:57:28.496Z,6.90
2023-02-27T03:58:00.938Z,7.10
2023-02-27T03:58:33.146Z,6.70
2023-02-27T03:59:05.846Z,6.72
2023-02-27T03:59:38.375Z,7.25
2023-02-27T04:00:14.641Z,7.53
2023-02-27T04:00:46.598Z,6.90
2023-02-27T04:01:19.301Z,6.97
2023-02-27T04:01:52.007Z,7.10
2023-02-27T04:02:24.488Z,7.25
2023-02-27T04:02:59.850Z,7.53
2023-02-27T04:03:37.426Z,7.05
2023-02-27T04:04:15.230Z,7.18
2023-02-27T04:04:46.905Z,6.70
2023-02-27T04:05:20.019Z,7.45
2023-02-27T04:05:52.487Z,7.50
2023-02-27T04:06:42.923Z,6.53
2023-02-27T04:07:37.722Z,6.03
2023-02-27T04:08:44.861Z,6.47
2023-02-27T04:09:35.058Z,6.80
2023-02-27T04:10:46.504Z,6.43
2023-02-27T04:11:49.112Z,6.25
2023-02-27T04:12:46.092Z,6.20
2023-02-27T04:13:39.943Z,6.78
2023-02-27T04:14:53.405Z,6.07
2023-02-27T04:15:53.021Z,6.63
2023-02-27T04:16:46.316Z,6.20
2023-02-27T04:17:24.581Z,6.15
2023-02-27T04:18:30.406Z,6.68
2023-02-27T04:19:44.290Z,6.50
2023-02-27T04:20:18.888Z,6.30
2023-02-27T04:20:56.998Z,6.85
2023-02-27T04:21:43.561Z,7.10
2023-02-27T04:22:38.274Z,6.88
2023-02-27T04:23:36.960Z,7.28
2023-02-27T04:24:21.618Z,6.25
2023-02-27T04:25:24.123Z,6.47
2023-02-27T04:26:27.997Z,6.28
2023-02-27T04:27:08.596Z,6.65
2023-02-27T04:28:14.186Z,6.53
2023-02-27T04:28:52.311Z,6.72
2023-02-27T04:30:02.382Z,7.00
2023-02-27T04:30:45.999Z,6.40
2023-02-27T04:31:25.002Z,6.70
2023-02-27T04:32:17.590Z,7.18
2023-02-27T04:32:57.629Z,6.47
2023-02-27T04:33:42.058Z,6.57
2023-02-27T04:34:18.040Z,7.28
2023-02-27T04:34:56.899Z,6.93
2023-02-27T04:35:47.080Z,7.55
2023-02-27T04:36:48.571Z,6.55
2023-02-27T04:37:31.964Z,6.93
2023-02-27T04:38:21.406Z,6.18
2023-02-27T04:39:22.133Z,6.68
2023-02-27T04:39:59.488Z,6.60
2023-02-27T04:40:38.951Z,6.85
2023-02-27T04:41:20.159Z,5.95
2023-02-27T04:41:58.050Z,6.75
2023-02-27T04:42:33.215Z,7.32
2023-02-27T04:43:07.678Z,6.90
2023-02-27T04:43:42.125Z,6.63
2023-02-27T04:44:16.695Z,7.47
2023-02-27T04:44:50.861Z,7.18
2023-02-27T04:45:26.324Z,6.72
2023-02-27T04:46:00.848Z,7.05
2023-02-27T04:46:36.348Z,6.88
2023-02-27T04:47:11.526Z,6.95
2023-02-27T04:48:09.056Z,7.15
2023-02-27T04:49:10.394Z,7.20
2023-02-27T04:49:51.286Z,6.72
2023-02-27T04:50:30.884Z,6.88
2023-02-27T04:51:16.936Z,7.07
2023-02-27T04:52:10.449Z,6.57
2023-02-27T04:52:47.552Z,7.32
2023-02-27T04:53:48.302Z,6.57
2023-02-27T04:54:27.565Z,6.55
2023-02-27T04:55:23.399Z,6.82
2023-02-27T04:56:19.036Z,6.72
2023-02-27T04:56:57.681Z,6.82
2023-02-27T04:57:35.642Z,6.35
2023-02-27T04:58:14.135Z,6.40
2023-02-27T04:58:52.710Z,6.43
2023-02-27T04:59:40.124Z,6.82
2023-02-27T05:00:13.980Z,6.68
2023-02-27T05:00:50.751Z,7.07
2023-02-27T05:01:37.202Z,6.60
2023-02-27T05:02:18.073Z,6.47
2023-02-27T05:02:56.561Z,7.03
2023-02-27T05:03:34.492Z,6.72
2023-02-27T05:04:08.860Z,6.95
2023-02-27T05:04:43.645Z,6.38
2023-02-27T05:05:20.010Z,6.97
2023-02-27T05:05:55.558Z,6.78
2023-02-27T05:06:32.053Z,6.65
2023-02-27T05:07:07.591Z,6.43
2023-02-27T05:07:51.545Z,6.47
2023-02-27T05:08:59.126Z,6.32
2023-02-27T05:09:41.335Z,6.03
2023-02-27T05:10:22.029Z,7.03
2023-02-27T05:11:03.929Z,6.38
2023-02-27T05:11:45.261Z,6.65
2023-02-27T05:12:23.051Z,6.13
2023-02-27T05:12:59.761Z,6.88
2023-02-27T05:13:42.008Z,6.97
2023-02-27T05:14:27.962Z,7.15
2023-02-27T05:15:12.163Z,6.70
2023-02-27T05:15:49.069Z,6.60
2023-02-27T05:16:36.801Z,7.15
2023-02-27T05:17:18.334Z,6.60
2023-02-27T05:17:58.267Z,6.93
2023-02-27T05:18:30.227Z,6.57
2023-02-27T05:19:03.048Z,6.38
2023-02-27T05:19:38.484Z,6.88
2023-02-27T05:20:11.591Z,6.60
2023-02-27T05:20:54.156Z,6.18
2023-02-27T05:21:42.447Z,6.07
2023-02-27T05:22:33.495Z,7.07
2023-02-27T05:23:20.128Z,7.05
2023-02-27T05:24:22.521Z,6.40
2023-02-27T05:24:54.785Z,6.80
2023-02-27T05:25:26.481Z,6.40
2023-02-27T05:26:25.247Z,6.75
2023-02-27T05:27:12.659Z,6.32
2023-02-27T05:28:08.019Z,6.53
2023-02-27T05:29:03.252Z,6.15
2023-02-27T05:29:47.112Z,5.68
2023-02-27T05:30:49.205Z,6.20
2023-02-27T05:31:27.314Z,6.35
2023-02-27T05:32:05.398Z,6.38
2023-02-27T05:33:12.173Z,6.68
2023-02-27T05:33:50.925Z,5.90
2023-02-27T05:34:33.703Z,7.47
2023-02-27T05:35:13.633Z,6.22
2023-02-27T05:35:57.705Z,6.47
2023-02-27T05:36:41.368Z,6.75
2023-02-27T05:37:22.348Z,6.40
2023-02-27T05:37:59.285Z,6.75
2023-02-27T05:38:34.423Z,6.55
2023-02-27T05:39:09.582Z,6.80
2023-02-27T05:39:43.555Z,6.43
2023-02-27T05:40:28.105Z,6.50
2023-02-27T05:41:13.204Z,6.57
2023-02-27T05:42:01.813Z,6.70
2023-02-27T05:42:38.619Z,6.75
2023-02-27T05:43:20.307Z,6.85
2023-02-27T05:43:58.208Z,6.18
2023-02-27T05:44:34.763Z,6.38
2023-02-27T05:45:20.721Z,6.97
2023-02-27T05:45:59.541Z,6.78
2023-02-27T05:46:36.348Z,6.40
2023-02-27T05:47:13.549Z,6.90
2023-02-27T05:47:52.879Z,6.95
2023-02-27T05:48:29.720Z,7.05
2023-02-27T05:49:06.078Z,6.53
2023-02-27T05:49:45.565Z,6.50
2023-02-27T05:50:23.341Z,6.18
2023-02-27T05:50:56.221Z,6.53
2023-02-27T05:51:31.646Z,6.75
2023-02-27T05:52:06.543Z,7.18
2023-02-27T05:52:40.376Z,6.63
2023-02-27T05:53:17.152Z,6.53
2023-02-27T05:53:54.631Z,6.82
2023-02-27T05:54:35.146Z,6.38
2023-02-27T05:55:30.136Z,6.60
2023-02-27T05:56:05.587Z,6.55
2023-02-27T05:56:38.636Z,7.07
2023-02-27T05:57:15.860Z,6.80
2023-02-27T05:58:25.667Z,6.65
2023-02-27T05:59:14.928Z,6.25
2023-02-27T06:00:03.471Z,6.63
2023-02-27T06:00:43.124Z,7.03
2023-02-27T06:01:14.847Z,6.80
2023-02-27T06:01:46.680Z,6.90
2023-02-27T06:02:18.446Z,7.07
2023-02-27T06:02:50.336Z,7.63
2023-02-27T06:03:22.371Z,7.50
2023-02-27T06:03:54.817Z,7.47
2023-02-27T06:04:26.441Z,7.30
2023-02-27T06:04:58.232Z,7.78
2023-02-27T06:05:30.528Z,7.43
2023-02-27T06:06:05.039Z,7.60
2023-02-27T06:06:37.329Z,7.78
2023-02-27T06:07:09.377Z,7.35
2023-02-27T06:07:41.464Z,8.30
2023-02-27T06:08:13.158Z,7.88
2023-02-27T06:08:45.870Z,7.97
2023-02-27T06:09:17.640Z,7.28
2023-02-27T06:09:50.596Z,7.50
2023-02-27T06:10:22.841Z,8.00
2023-02-27T06:10:55.350Z,8.10
2023-02-27T06:11:26.976Z,8.23
2023-02-27T06:12:01.368Z,8.10
2023-02-27T06:12:32.966Z,8.20
2023-02-27T06:13:04.696Z,8.10
2023-02-27T06:13:36.382Z,7.88
2023-02-27T06:14:08.065Z,8.52
2023-02-27T06:14:39.765Z,8.35
2023-02-27T06:15:12.566Z,8.02
2023-02-27T06:15:45.088Z,7.90
2023-02-27T06:16:17.314Z,8.30
2023-02-27T06:16:49.045Z,7.82
2023-02-27T06:17:20.624Z,8.05
2023-02-27T06:17:52.262Z,7.70
2023-02-27T06:18:23.995Z,7.97
2023-02-27T06:18:55.940Z,8.15
2023-02-27T06:19:27.557Z,8.25
2023-02-27T06:19:59.247Z,7.75
2023-02-27T06:20:30.855Z,7.70
2023-02-27T06:21:03.678Z,7.93
2023-02-27T06:21:35.345Z,7.70
2023-02-27T06:22:06.960Z,7.90
2023-02-27T06:22:38.580Z,8.10
2023-02-27T06:23:11.669Z,7.53
2023-02-27T06:23:43.353Z,7.90
2023-02-27T06:24:14.995Z,7.97
2023-02-27T06:24:46.652Z,7.50
2023-02-27T06:25:18.546Z,7.55
2023-02-27T06:25:50.169Z,7.72
2023-02-27T06:26:21.974Z,7.78
2023-02-27T06:26:53.659Z,7.03
2023-02-27T06:27:26.936Z,8.05
2023-02-27T06:27:58.539Z,7.72
2023-02-27T06:28:30.258Z,7.80
2023-02-27T06:29:02.642Z,8.07
2023-02-27T06:29:34.286Z,7.40
2023-02-27T06:30:09.660Z,8.13
2023-02-27T06:30:41.537Z,7.07
2023-02-27T06:31:13.257Z,7.97
2023-02-27T06:31:45.276Z,7.65
2023-02-27T06:32:17.034Z,7.65
2023-02-27T06:32:48.680Z,7.32
2023-02-27T06:33:20.394Z,7.88
2023-02-27T06:33:52.103Z,7.38
2023-02-27T06:34:23.724Z,7.60
2023-02-27T06:34:55.350Z,7.78
2023-02-27T06:35:29.136Z,7.10
2023-02-27T06:36:00.903Z,7.57
2023-02-27T06:36:32.626Z,7.88
2023-02-27T06:37:04.447Z,7.82
2023-02-27T06:37:36.118Z,7.90
2023-02-27T06:38:07.870Z,7.78
2023-02-27T06:38:39.492Z,7.60
2023-02-27T06:39:11.183Z,7.82
2023-02-27T06:39:42.888Z,7.68
2023-02-27T06:40:15.168Z,7.90
2023-02-27T06:40:46.758Z,8.10
2023-02-27T06:41:19.197Z,8.27
2023-02-27T06:41:50.810Z,7.70
2023-02-27T06:42:22.822Z,7.55
2023-02-27T06:42:54.644Z,8.13
2023-02-27T06:43:26.279Z,7.70
2023-02-27T06:43:58.271Z,8.77
2023-02-27T06:44:30.088Z,7.05
2023-02-27T06:45:01.711Z,7.95
2023-02-27T06:45:33.352Z,8.32
2023-02-27T06:46:05.316Z,8.23
2023-02-27T06:46:36.976Z,7.95
2023-02-27T06:47:08.688Z,7.78
2023-02-27T06:47:41.483Z,7.78
2023-02-27T06:48:15.308Z,7.45
2023-02-27T06:48:46.960Z,7.38
2023-02-27T06:49:19.110Z,7.60
2023-02-27T06:49:50.805Z,7.63
2023-02-27T06:50:22.444Z,6.88
2023-02-27T06:50:56.366Z,6.68
2023-02-27T06:51:28.229Z,7.40
2023-02-27T06:52:00.051Z,7.30
2023-02-27T06:52:32.687Z,6.80
2023-02-27T06:53:04.383Z,6.57
2023-02-27T06:53:36.068Z,7.65
2023-02-27T06:54:08.172Z,7.63
2023-02-27T06:54:39.916Z,6.90
2023-02-27T06:55:11.974Z,6.97
2023-02-27T06:55:43.783Z,7.47
2023-02-27T06:56:15.743Z,7.15
2023-02-27T06:56:48.019Z,6.82
2023-02-27T06:57:19.959Z,7.43
2023-02-27T06:57:51.577Z,7.03
2023-02-27T06:58:24.982Z,7.60
2023-02-27T06:58:58.054Z,7.35
2023-02-27T06:59:31.052Z,6.95
2023-02-27T07:00:04.642Z,7.35
2023-02-27T07:00:36.483Z,7.97
2023-02-27T07:01:08.248Z,8.23
2023-02-27T07:01:40.002Z,7.20
2023-02-27T07:02:13.887Z,7.18
2023-02-27T07:02:45.607Z,7.28
2023-02-27T07:03:17.453Z,6.65
2023-02-27T07:03:49.085Z,7.85
2023-02-27T07:04:20.810Z,7.20
2023-02-27T07:04:53.376Z,7.40
2023-02-27T07:05:25.042Z,6.68
2023-02-27T07:05:58.137Z,7.40
2023-02-27T07:07:33.104Z,7.38
2023-02-27T07:07:35.711Z,6.88
2023-02-27T07:08:09.911Z,7.90
2023-02-27T07:09:01.865Z,7.47
2023-02-27T07:09:33.365Z,7.18
2023-02-27T07:10:11.979Z,7.68
2023-02-27T07:10:49.207Z,7.63
2023-02-27T07:11:20.907Z,8.18
2023-02-27T07:11:52.503Z,7.22
2023-02-27T07:12:24.100Z,6.95
2023-02-27T07:12:55.880Z,7.50
2023-02-27T07:13:27.485Z,7.55
2023-02-27T07:13:59.140Z,7.47
2023-02-27T07:14:30.937Z,10.15
2023-02-27T07:15:02.737Z,10.10
2023-02-27T07:15:34.380Z,8.48
2023-02-27T07:16:06.583Z,8.40
2023-02-27T07:16:38.440Z,7.78
2023-02-27T07:17:10.237Z,7.60
2023-02-27T07:17:41.895Z,8.65
2023-02-27T07:18:13.666Z,8.25
2023-02-27T07:18:45.923Z,9.27
2023-02-27T07:19:18.602Z,8.88
2023-02-27T07:19:50.241Z,8.40
2023-02-27T07:20:21.945Z,7.97
2023-02-27T07:20:55.274Z,7.65
2023-02-27T07:21:26.946Z,8.13
2023-02-27T07:21:58.591Z,7.22
2023-02-27T07:22:30.248Z,7.82
2023-02-27T07:23:02.076Z,8.05
2023-02-27T07:23:33.906Z,7.68
2023-02-27T07:24:05.766Z,7.13
2023-02-27T07:24:37.453Z,6.78
2023-02-27T07:25:10.204Z,7.63
2023-02-27T07:25:41.947Z,7.18
2023-02-27T07:26:13.682Z,7.28
2023-02-27T07:26:45.260Z,7.28
2023-02-27T07:27:16.884Z,7.40
2023-02-27T07:27:50.784Z,7.22
2023-02-27T07:28:22.457Z,7.30
2023-02-27T07:28:54.898Z,7.32
2023-02-27T07:29:26.868Z,7.10
2023-02-27T07:29:58.866Z,7.72
2023-02-27T07:30:30.950Z,7.03
2023-02-27T07:31:02.668Z,7.55
2023-02-27T07:31:34.403Z,7.47
2023-02-27T07:32:06.127Z,7.25
2023-02-27T07:32:37.759Z,7.38
2023-02-27T07:33:09.375Z,7.85
2023-02-27T07:33:42.087Z,6.97
2023-02-27T07:34:15.594Z,8.10
2023-02-27T07:34:47.298Z,7.30
2023-02-27T07:35:19.557Z,7.82
2023-02-27T07:35:51.429Z,8.10
2023-02-27T07:36:23.110Z,7.68
2023-02-27T07:36:54.848Z,7.35
2023-02-27T07:37:27.927Z,7.68
2023-02-27T07:37:59.786Z,7.50
2023-02-27T07:38:32.569Z,7.28
2023-02-27T07:39:05.270Z,7.32
2023-02-27T07:39:36.951Z,7.20
2023-02-27T07:40:09.726Z,7.35
2023-02-27T07:40:42.033Z,7.30
2023-02-27T07:41:28.374Z,7.00
2023-02-27T07:42:01.760Z,6.95
2023-02-27T07:42:34.028Z,6.55
2023-02-27T07:43:05.664Z,6.50
2023-02-27T07:43:37.345Z,6.88
2023-02-27T07:44:09.272Z,7.18
2023-02-27T07:44:41.204Z,7.13
2023-02-27T07:45:12.869Z,7.07
2023-02-27T07:45:45.327Z,6.28
2023-02-27T07:46:16.951Z,5.82
2023-02-27T07:46:48.643Z,6.28
2023-02-27T07:47:20.287Z,6.32
2023-02-27T07:47:52.010Z,6.65
2023-02-27T07:48:24.291Z,6.60
2023-02-27T07:48:55.998Z,5.50
2023-02-27T07:49:27.663Z,6.00
2023-02-27T07:49:59.382Z,5.85
2023-02-27T07:50:31.008Z,5.90
2023-02-27T07:51:02.757Z,6.18
2023-02-27T07:51:34.347Z,5.78
2023-02-27T07:52:07.751Z,5.65
2023-02-27T07:52:42.939Z,6.22
2023-02-27T07:53:14.652Z,6.18
2023-02-27T07:53:46.446Z,6.22
2023-02-27T07:54:18.374Z,5.90
2023-02-27T07:54:49.979Z,6.00
2023-02-27T07:55:22.070Z,5.78
2023-02-27T07:55:53.675Z,5.68
2023-02-27T07:56:28.501Z,6.65
2023-02-27T07:57:00.457Z,5.68
2023-02-27T07:57:32.203Z,5.07
2023-02-27T07:58:03.839Z,5.50
2023-02-27T07:58:35.428Z,5.25
2023-02-27T07:59:07.059Z,5.85
2023-02-27T07:59:38.685Z,5.43
2023-02-27T08:00:11.054Z,5.20
2023-02-27T08:00:42.829Z,5.03
2023-02-27T08:01:14.432Z,5.22
2023-02-27T08:01:46.002Z,5.20
2023-02-27T08:02:17.657Z,5.68
2023-02-27T08:02:49.263Z,5.35
2023-02-27T08:03:20.849Z,5.47
2023-02-27T08:03:52.463Z,5.47
2023-02-27T08:04:24.148Z,5.75
2023-02-27T08:04:55.861Z,5.68
2023-02-27T08:05:27.578Z,5.32
2023-02-27T08:06:01.230Z,5.35
2023-02-27T08:06:33.717Z,5.57
2023-02-27T08:07:05.677Z,5.40
2023-02-27T08:07:37.596Z,5.25
2023-02-27T08:08:09.322Z,4.97
2023-02-27T08:08:41.196Z,5.00
2023-02-27T08:09:12.926Z,5.28
2023-02-27T08:09:44.541Z,4.53
2023-02-27T08:10:16.798Z,5.32
2023-02-27T08:10:50.110Z,4.32